createdAt,value
2018-05-11T00:01:14.539Z,96.40
2018-05-11T00:03:42.661Z,96.50
2018-05-11T00:06:10.810Z,95.20
2018-05-11T00:08:38.987Z,96.60
2018-05-11T00:11:07.118Z,96.90
2018-05-11T00:13:35.341Z,96.50
2018-05-11T00:16:03.486Z,96.90
2018-05-11T00:18:31.605Z,96.50
2018-05-11T00:20:59.817Z,96.30
2018-05-11T00:23:28.053Z,96.30
2018-05-11T00:25:56.181Z,95.40
2018-05-11T00:28:24.846Z,96.00
2018-05-11T00:30:53.017Z,95.80
2018-05-11T00:33:21.205Z,95.90
2018-05-11T00:35:49.366Z,96.60
2018-05-11T00:38:17.534Z,96.60
2018-05-11T00:40:45.690Z,96.10
2018-05-11T00:43:15.015Z,96.60
2018-05-11T00:45:53.086Z,96.70
2018-05-11T00:48:22.009Z,94.80
2018-05-11T00:50:50.225Z,94.80
2018-05-11T00:53:18.453Z,94.40
2018-05-11T00:55:51.227Z,93.30
2018-05-11T00:58:19.394Z,94.90
2018-05-11T01:00:47.557Z,95.00
2018-05-11T01:03:16.501Z,94.80
2018-05-11T01:05:44.616Z,94.90
2018-05-11T01:08:13.500Z,94.20
2018-05-11T01:10:42.433Z,94.00
2018-05-11T01:13:10.590Z,94.00
2018-05-11T01:15:38.779Z,94.10
2018-05-11T01:18:06.937Z,94.70
2018-05-11T01:20:35.065Z,94.30
2018-05-11T01:23:03.214Z,93.90
2018-05-11T01:25:31.590Z,94.50
2018-05-11T01:28:00.671Z,94.30
2018-05-11T01:30:28.805Z,95.10
2018-05-11T01:32:57.713Z,95.00
2018-05-11T01:35:25.889Z,95.00
2018-05-11T01:37:54.058Z,93.80
2018-05-11T01:40:22.218Z,94.40
2018-05-11T01:42:51.157Z,94.40
2018-05-11T01:45:19.401Z,94.40
2018-05-11T01:47:47.883Z,94.10
2018-05-11T01:50:16.004Z,94.40
2018-05-11T01:52:44.128Z,94.00
2018-05-11T01:55:12.274Z,94.50
2018-05-11T01:57:41.288Z,93.60
2018-05-11T02:00:09.473Z,93.60
2018-05-11T02:02:38.050Z,94.90
2018-05-11T02:05:06.258Z,95.00
2018-05-11T02:07:34.381Z,94.80
2018-05-11T02:10:03.028Z,94.10
2018-05-11T02:12:31.230Z,94.30
2018-05-11T02:15:00.136Z,93.60
2018-05-11T02:17:28.443Z,93.60
2018-05-11T02:19:56.599Z,92.50
2018-05-11T02:22:24.725Z,93.20
2018-05-11T02:24:52.889Z,93.50
2018-05-11T02:27:21.005Z,92.30
2018-05-11T02:29:49.163Z,93.20
2018-05-11T02:32:17.385Z,93.20
2018-05-11T02:34:45.520Z,93.10
2018-05-11T02:37:13.690Z,92.90
2018-05-11T02:39:41.864Z,92.80
2018-05-11T02:42:10.016Z,92.90
2018-05-11T02:44:38.926Z,93.20
2018-05-11T02:47:07.066Z,93.20
2018-05-11T02:49:35.217Z,93.80
2018-05-11T02:52:03.387Z,93.70
2018-05-11T02:54:31.538Z,93.80
2018-05-11T02:56:59.674Z,94.10
2018-05-11T02:59:29.413Z,93.00
2018-05-11T03:01:57.573Z,93.20
2018-05-11T03:04:25.725Z,93.20
2018-05-11T03:06:54.644Z,93.20
2018-05-11T03:09:22.790Z,93.20
2018-05-11T03:11:51.733Z,92.90
2018-05-11T03:14:20.012Z,92.90
2018-05-11T03:16:48.210Z,93.60
2018-05-11T03:19:18.015Z,92.50
2018-05-11T03:21:46.175Z,92.40
2018-05-11T03:24:14.344Z,93.10
2018-05-11T03:26:42.486Z,93.10
2018-05-11T03:29:11.191Z,93.00
2018-05-11T03:31:39.461Z,93.00
2018-05-11T03:34:07.656Z,92.50
2018-05-11T03:36:45.737Z,92.30
2018-05-11T03:39:13.855Z,92.50
2018-05-11T03:41:42.112Z,93.30
2018-05-11T03:44:11.049Z,93.40
2018-05-11T03:46:39.236Z,93.10
2018-05-11T03:49:07.802Z,93.10
2018-05-11T03:51:35.950Z,92.60
2018-05-11T03:54:04.910Z,93.00
2018-05-11T03:56:33.080Z,93.20
2018-05-11T03:59:01.209Z,93.50
2018-05-11T04:01:47.302Z,93.70
2018-05-11T04:04:33.274Z,93.80
2018-05-11T04:07:20.985Z,93.80
2018-05-11T04:09:49.122Z,93.80
2018-05-11T04:12:17.241Z,93.80
2018-05-11T04:14:45.369Z,93.90
2018-05-11T04:17:13.531Z,93.40
2018-05-11T04:19:41.660Z,92.60
2018-05-11T04:22:09.834Z,93.50
2018-05-11T04:24:38.846Z,93.80
2018-05-11T04:27:07.042Z,93.80
2018-05-11T04:29:35.192Z,92.60
2018-05-11T04:32:03.350Z,93.60
2018-05-11T04:34:32.993Z,93.10
2018-05-11T04:37:01.609Z,93.10
2018-05-11T04:39:30.019Z,94.10
2018-05-11T04:41:58.906Z,93.20
2018-05-11T04:44:28.442Z,93.20
2018-05-11T04:46:56.561Z,93.20
2018-05-11T04:49:24.690Z,92.50
2018-05-11T04:51:52.871Z,91.90
2018-05-11T04:54:21.035Z,91.70
2018-05-11T04:56:49.182Z,91.10
2018-05-11T04:59:18.122Z,91.60
2018-05-11T05:01:46.295Z,91.60
2018-05-11T05:04:14.463Z,91.30
2018-05-11T05:06:42.733Z,91.10
2018-05-11T05:09:10.866Z,91.10
2018-05-11T05:11:39.784Z,91.00
2018-05-11T05:14:07.925Z,91.00
2018-05-11T05:16:36.816Z,91.30
2018-05-11T05:19:06.048Z,90.30
2018-05-11T05:21:34.160Z,90.30
2018-05-11T05:24:02.530Z,91.20
2018-05-11T05:26:30.782Z,90.50
2018-05-11T05:28:58.916Z,90.40
2018-05-11T05:31:27.836Z,91.00
2018-05-11T05:33:55.946Z,91.00
2018-05-11T05:36:24.194Z,91.40
2018-05-11T05:38:52.386Z,90.50
2018-05-11T05:41:21.005Z,91.10
2018-05-11T05:43:49.942Z,87.90
2018-05-11T05:46:18.617Z,88.00
2018-05-11T05:48:46.733Z,90.50
2018-05-11T05:51:14.904Z,88.30
2018-05-11T05:53:43.120Z,88.70
2018-05-11T05:56:11.269Z,90.30
2018-05-11T05:58:40.190Z,90.20
2018-05-11T06:01:08.382Z,90.20
2018-05-11T06:03:36.541Z,88.00
2018-05-11T06:06:04.677Z,88.60
2018-05-11T06:08:33.609Z,89.50
2018-05-11T06:11:01.767Z,89.40
2018-05-11T06:13:29.929Z,88.80
2018-05-11T06:15:58.653Z,85.50
2018-05-11T06:18:26.785Z,88.80
2018-05-11T06:20:54.934Z,89.10
2018-05-11T06:23:23.873Z,87.60
2018-05-11T06:25:51.996Z,87.70
2018-05-11T06:28:21.537Z,88.30
2018-05-11T06:30:49.707Z,87.30
2018-05-11T06:33:17.865Z,87.80
2018-05-11T06:35:46.038Z,90.00
2018-05-11T06:38:14.216Z,90.00
2018-05-11T06:40:42.386Z,89.70
2018-05-11T06:43:10.569Z,90.00
2018-05-11T06:45:39.497Z,90.30
2018-05-11T06:48:07.636Z,90.70
2018-05-11T06:50:35.811Z,90.00
2018-05-11T06:53:03.969Z,90.00
2018-05-11T06:55:32.139Z,90.00
2018-05-11T06:58:00.287Z,90.80
2018-05-11T07:00:29.254Z,89.30
2018-05-11T07:02:57.390Z,89.20
2018-05-11T07:05:25.561Z,90.10
2018-05-11T07:07:53.824Z,89.50
2018-05-11T07:10:22.025Z,89.00
2018-05-11T07:12:50.172Z,90.10
2018-05-11T07:15:18.337Z,87.80
2018-05-11T07:17:47.311Z,88.30
2018-05-11T07:20:16.236Z,85.30
2018-05-11T07:22:44.369Z,85.30
2018-05-11T07:25:12.505Z,84.00
2018-05-11T07:27:40.652Z,84.50
2018-05-11T07:30:08.821Z,86.10
2018-05-11T07:32:36.985Z,83.90
2018-05-11T07:35:05.232Z,81.50
2018-05-11T07:37:33.403Z,80.50
2018-05-11T07:40:02.301Z,79.90
2018-05-11T07:42:31.228Z,80.30
2018-05-11T07:44:59.414Z,80.40
2018-05-11T07:47:27.595Z,82.20
2018-05-11T07:49:55.749Z,79.00
2018-05-11T07:52:23.898Z,81.00
2018-05-11T07:54:52.826Z,79.20
2018-05-11T07:57:20.988Z,79.30
2018-05-11T07:59:49.173Z,77.80
2018-05-11T08:02:17.339Z,80.50
2018-05-11T08:04:45.493Z,76.00
2018-05-11T08:07:13.660Z,77.40
2018-05-11T08:09:41.808Z,69.50
2018-05-11T08:12:10.724Z,72.70
2018-05-11T08:14:38.925Z,72.90
2018-05-11T08:17:07.132Z,74.50
2018-05-11T08:19:35.289Z,76.00
2018-05-11T08:22:03.454Z,72.00
2018-05-11T08:24:32.546Z,70.50
2018-05-11T08:27:00.880Z,68.70
2018-05-11T08:29:28.947Z,68.50
2018-05-11T08:31:57.889Z,67.90
2018-05-11T08:34:26.142Z,67.80
2018-05-11T08:36:54.295Z,68.60
2018-05-11T08:39:22.446Z,68.90
2018-05-11T08:41:51.345Z,64.80
2018-05-11T08:44:20.262Z,69.00
2018-05-11T08:46:48.422Z,69.00
2018-05-11T08:49:16.582Z,64.80
2018-05-11T08:51:45.565Z,60.80
2018-05-11T08:54:13.694Z,60.70
2018-05-11T08:56:41.890Z,61.20
2018-05-11T08:59:10.013Z,66.60
2018-05-11T09:01:38.181Z,60.40
2018-05-11T09:04:06.439Z,60.60
2018-05-11T09:06:35.637Z,56.00
2018-05-11T09:09:04.588Z,57.70
2018-05-11T09:11:32.715Z,57.60
2018-05-11T09:14:00.887Z,60.10
2018-05-11T09:16:29.021Z,59.70
2018-05-11T09:18:57.391Z,62.80
2018-05-11T09:21:26.514Z,63.90
2018-05-11T09:23:54.705Z,63.50
2018-05-11T09:26:22.841Z,66.90
2018-05-11T09:28:51.022Z,62.70
2018-05-11T09:31:19.951Z,60.30
2018-05-11T09:33:48.118Z,60.20
2018-05-11T09:36:16.273Z,56.60
2018-05-11T09:38:45.214Z,51.30
2018-05-11T09:41:14.161Z,51.20
2018-05-11T09:43:42.309Z,53.10
2018-05-11T09:46:10.551Z,52.40
2018-05-11T09:48:38.752Z,51.40
2018-05-11T09:51:06.925Z,47.90
2018-05-11T09:53:35.078Z,51.10
2018-05-11T09:56:03.202Z,50.60
2018-05-11T09:58:31.357Z,43.40
2018-05-11T10:01:00.294Z,44.30
2018-05-11T10:03:28.458Z,44.30
2018-05-11T10:05:56.581Z,43.60
2018-05-11T10:08:24.713Z,40.30
2018-05-11T10:10:52.828Z,47.50
2018-05-11T10:13:21.795Z,41.80
2018-05-11T10:15:49.925Z,40.30
2018-05-11T10:18:18.082Z,38.20
2018-05-11T10:20:46.325Z,41.10
2018-05-11T10:23:14.375Z,39.00
2018-05-11T10:25:42.542Z,44.40
2018-05-11T10:28:10.669Z,41.50
2018-05-11T10:30:39.594Z,40.80
2018-05-11T10:33:07.779Z,41.00
2018-05-11T10:35:35.938Z,39.70
2018-05-11T10:38:04.060Z,39.90
2018-05-11T10:40:32.289Z,38.10
2018-05-11T10:43:01.108Z,38.50
2018-05-11T10:45:29.278Z,38.10
2018-05-11T10:47:57.409Z,43.00
2018-05-11T10:50:25.612Z,41.50
2018-05-11T10:52:53.729Z,43.50
2018-05-11T10:55:22.665Z,43.90
2018-05-11T10:57:50.837Z,43.90
2018-05-11T11:00:19.005Z,44.20
2018-05-11T11:02:47.165Z,44.60
2018-05-11T11:05:15.290Z,49.40
2018-05-11T11:07:44.125Z,48.00
2018-05-11T11:10:12.248Z,45.20
2018-05-11T11:12:40.391Z,45.70
2018-05-11T11:15:08.586Z,43.80
2018-05-11T11:17:36.709Z,46.00
2018-05-11T11:20:04.887Z,46.10
2018-05-11T11:22:34.093Z,42.80
2018-05-11T11:25:02.238Z,42.70
2018-05-11T11:27:30.396Z,44.40
2018-05-11T11:29:59.288Z,43.00
2018-05-11T11:32:28.925Z,42.00
2018-05-11T11:34:57.201Z,41.90
2018-05-11T11:37:25.352Z,40.50
2018-05-11T11:39:53.490Z,43.80
2018-05-11T11:42:21.695Z,42.60
2018-05-11T11:44:49.924Z,46.50
2018-05-11T11:47:18.409Z,45.10
2018-05-11T11:49:46.675Z,42.20
2018-05-11T11:52:14.910Z,40.90
2018-05-11T11:54:43.041Z,40.10
2018-05-11T11:57:11.193Z,39.70
2018-05-11T11:59:39.323Z,37.90
2018-05-11T12:02:07.472Z,39.10
2018-05-11T12:04:37.161Z,41.10
2018-05-11T12:07:05.302Z,40.90
2018-05-11T12:09:33.444Z,40.50
2018-05-11T12:12:01.618Z,39.50
2018-05-11T12:14:29.794Z,40.10
2018-05-11T12:16:57.928Z,40.90
2018-05-11T12:19:26.205Z,41.40
2018-05-11T12:21:54.327Z,42.10
2018-05-11T12:24:22.604Z,40.90
2018-05-11T12:26:50.721Z,39.00
2018-05-11T12:29:18.843Z,36.50
2018-05-11T12:31:46.969Z,39.20
2018-05-11T12:34:15.125Z,37.60
2018-05-11T12:36:44.081Z,38.60
2018-05-11T12:39:12.204Z,38.60
2018-05-11T12:41:40.327Z,37.00
2018-05-11T12:44:08.503Z,38.60
2018-05-11T12:46:37.148Z,40.60
2018-05-11T12:49:05.246Z,39.30
2018-05-11T12:51:33.401Z,41.10
2018-05-11T12:54:03.639Z,39.20
2018-05-11T12:56:31.748Z,39.30
2018-05-11T12:58:59.942Z,40.30
2018-05-11T13:01:28.069Z,41.70
2018-05-11T13:03:56.579Z,40.40
2018-05-11T13:06:24.741Z,41.00
2018-05-11T13:08:52.916Z,40.70
2018-05-11T13:11:21.069Z,42.10
2018-05-11T13:13:49.211Z,45.20
2018-05-11T13:16:18.138Z,44.50
2018-05-11T13:18:46.296Z,44.60
2018-05-11T13:21:14.453Z,44.60
2018-05-11T13:23:42.729Z,43.40
2018-05-11T13:26:10.845Z,46.10
2018-05-11T13:28:38.994Z,45.30
2018-05-11T13:31:07.163Z,44.20
2018-05-11T13:33:35.276Z,43.90
2018-05-11T13:36:03.458Z,42.40
2018-05-11T13:38:32.395Z,40.70
2018-05-11T13:41:00.550Z,40.60
2018-05-11T13:43:28.828Z,41.90
2018-05-11T13:45:57.046Z,42.00
2018-05-11T13:48:25.382Z,42.50
2018-05-11T13:50:53.521Z,39.30
2018-05-11T13:53:21.960Z,38.40
2018-05-11T13:55:50.097Z,39.40
2018-05-11T13:58:19.034Z,39.40
2018-05-11T14:00:47.196Z,39.40
2018-05-11T14:03:15.328Z,38.70
2018-05-11T14:05:44.257Z,37.90
2018-05-11T14:08:12.451Z,37.90
2018-05-11T14:10:40.610Z,39.10
2018-05-11T14:13:08.740Z,39.30
2018-05-11T14:15:37.639Z,40.00
2018-05-11T14:18:05.842Z,39.90
2018-05-11T14:20:33.992Z,39.00
2018-05-11T14:23:02.186Z,37.00
2018-05-11T14:25:30.378Z,39.20
2018-05-11T14:27:58.494Z,36.50
2018-05-11T14:30:27.409Z,36.90
2018-05-11T14:32:55.666Z,36.90
2018-05-11T14:35:23.813Z,34.60
2018-05-11T14:37:52.720Z,34.70
2018-05-11T14:40:21.006Z,34.60
2018-05-11T14:42:49.179Z,35.10
2018-05-11T14:45:17.350Z,33.80
2018-05-11T14:47:45.546Z,32.90
2018-05-11T14:50:13.697Z,32.40
2018-05-11T14:52:41.832Z,32.40
2018-05-11T14:55:09.990Z,30.40
2018-05-11T14:57:38.254Z,30.30
2018-05-11T15:00:06.427Z,30.50
2018-05-11T15:02:34.562Z,32.10
2018-05-11T15:05:02.711Z,29.80
2018-05-11T15:07:31.649Z,30.40
2018-05-11T15:09:59.823Z,30.40
2018-05-11T15:12:28.014Z,31.80
2018-05-11T15:14:56.149Z,30.00
2018-05-11T15:17:24.305Z,30.40
2018-05-11T15:19:52.486Z,30.50
2018-05-11T15:22:20.643Z,31.30
2018-05-11T15:24:49.661Z,30.80
2018-05-11T15:27:17.778Z,30.90
2018-05-11T15:29:45.948Z,30.40
2018-05-11T15:32:14.194Z,31.60
2018-05-11T15:34:42.348Z,30.20
2018-05-11T15:37:10.523Z,32.30
2018-05-11T15:39:38.649Z,30.40
2018-05-11T15:42:06.831Z,29.50
2018-05-11T15:44:34.999Z,29.70
2018-05-11T15:47:03.631Z,30.00
2018-05-11T15:49:31.782Z,29.60
2018-05-11T15:52:00.821Z,31.50
2018-05-11T15:54:28.953Z,31.70
2018-05-11T15:56:57.108Z,29.10
2018-05-11T15:59:26.069Z,32.70
2018-05-11T16:01:54.285Z,32.60
2018-05-11T16:04:23.203Z,31.10
2018-05-11T16:06:51.358Z,31.20
2018-05-11T16:09:19.482Z,33.50
2018-05-11T16:11:47.641Z,31.20
2018-05-11T16:14:15.815Z,32.80
2018-05-11T16:16:43.940Z,32.60
2018-05-11T16:19:12.159Z,33.20
2018-05-11T16:21:40.314Z,35.30
2018-05-11T16:24:08.447Z,32.80
2018-05-11T16:26:37.381Z,36.00
2018-05-11T16:29:05.523Z,36.00
2018-05-11T16:31:33.669Z,35.90
2018-05-11T16:34:01.815Z,36.20
2018-05-11T16:36:29.977Z,36.70
2018-05-11T16:38:58.148Z,35.60
2018-05-11T16:41:26.283Z,35.50
2018-05-11T16:43:54.421Z,35.10
2018-05-11T16:46:22.672Z,36.50
2018-05-11T16:48:50.832Z,36.80
2018-05-11T16:51:19.581Z,36.30
2018-05-11T16:53:48.487Z,36.40
2018-05-11T16:56:16.603Z,36.40
2018-05-11T16:58:44.769Z,36.60
2018-05-11T17:01:12.926Z,36.30
2018-05-11T17:03:41.097Z,38.20
2018-05-11T17:06:09.253Z,37.20
2018-05-11T17:08:37.402Z,37.40
2018-05-11T17:11:06.317Z,40.50
2018-05-11T17:13:34.495Z,40.50
2018-05-11T17:16:02.650Z,38.60
2018-05-11T17:18:30.810Z,40.20
2018-05-11T17:20:59.800Z,40.20
2018-05-11T17:23:27.964Z,40.10
2018-05-11T17:25:56.086Z,41.10
2018-05-11T17:28:24.228Z,41.10
2018-05-11T17:30:53.154Z,42.50
2018-05-11T17:33:21.296Z,42.70
2018-05-11T17:35:49.467Z,43.40
2018-05-11T17:38:17.623Z,43.70
2018-05-11T17:40:46.566Z,43.90
2018-05-11T17:43:14.714Z,43.90
2018-05-11T17:45:42.855Z,45.70
2018-05-11T17:48:11.761Z,47.40
2018-05-11T17:50:49.883Z,47.30
2018-05-11T17:53:18.083Z,47.20
2018-05-11T17:55:46.358Z,47.10
2018-05-11T17:58:14.547Z,47.10
2018-05-11T18:00:42.661Z,48.30
2018-05-11T18:03:11.636Z,48.60
2018-05-11T18:05:39.711Z,48.60
2018-05-11T18:08:08.620Z,50.50
2018-05-11T18:10:36.838Z,50.50
2018-05-11T18:13:04.989Z,50.30
2018-05-11T18:15:33.193Z,52.40
2018-05-11T18:18:01.931Z,50.80
2018-05-11T18:20:30.810Z,51.80
2018-05-11T18:22:58.994Z,52.00
2018-05-11T18:25:27.136Z,51.90
2018-05-11T18:27:55.275Z,52.00
2018-05-11T18:30:23.426Z,52.20
2018-05-11T18:32:51.583Z,52.20
2018-05-11T18:35:19.759Z,52.50
2018-05-11T18:37:47.912Z,52.50
2018-05-11T18:40:16.901Z,52.70
2018-05-11T18:42:45.050Z,52.90
2018-05-11T18:45:13.194Z,53.30
2018-05-11T18:47:41.383Z,52.10
2018-05-11T18:50:09.508Z,52.80
2018-05-11T18:52:37.662Z,52.90
2018-05-11T18:55:06.803Z,53.80
2018-05-11T18:57:34.953Z,53.90
2018-05-11T19:00:03.221Z,56.10
2018-05-11T19:02:31.394Z,54.80
2018-05-11T19:04:59.553Z,57.50
2018-05-11T19:07:28.437Z,55.90
2018-05-11T19:09:57.381Z,53.90
2018-05-11T19:12:25.611Z,53.90
2018-05-11T19:14:53.930Z,54.10
2018-05-11T19:17:22.086Z,53.50
2018-05-11T19:19:50.833Z,53.80
2018-05-11T19:22:19.730Z,54.80
2018-05-11T19:24:48.855Z,55.20
2018-05-11T19:27:17.096Z,55.20
2018-05-11T19:29:46.031Z,55.10
2018-05-11T19:32:14.796Z,55.10
2018-05-11T19:34:42.969Z,53.90
2018-05-11T19:37:11.084Z,55.30
2018-05-11T19:39:39.601Z,55.60
2018-05-11T19:42:08.527Z,56.10
2018-05-11T19:44:36.713Z,56.10
2018-05-11T19:47:04.854Z,57.80
2018-05-11T19:49:33.060Z,56.30
2018-05-11T19:52:01.218Z,58.10
2018-05-11T19:54:29.349Z,58.10
2018-05-11T19:56:58.291Z,60.40
2018-05-11T19:59:26.465Z,60.30
2018-05-11T20:01:55.481Z,59.20
2018-05-11T20:04:23.749Z,59.30
2018-05-11T20:06:51.910Z,61.30
2018-05-11T20:09:20.062Z,62.50
2018-05-11T20:11:48.286Z,62.60
2018-05-11T20:14:16.476Z,63.40
2018-05-11T20:16:45.407Z,64.70
2018-05-11T20:19:13.639Z,64.70
2018-05-11T20:21:41.733Z,65.90
2018-05-11T20:24:10.445Z,65.70
2018-05-11T20:26:38.702Z,67.00
2018-05-11T20:29:06.855Z,68.20
2018-05-11T20:31:35.778Z,68.40
2018-05-11T20:34:03.913Z,68.40
2018-05-11T20:36:32.800Z,70.00
2018-05-11T20:39:01.746Z,70.60
2018-05-11T20:41:29.955Z,70.70
2018-05-11T20:43:58.882Z,70.60
2018-05-11T20:46:27.158Z,70.60
2018-05-11T20:48:55.333Z,70.90
2018-05-11T20:51:23.547Z,71.90
2018-05-11T20:53:51.676Z,72.50
2018-05-11T20:56:19.809Z,73.20
2018-05-11T20:58:48.209Z,75.50
2018-05-11T21:01:16.372Z,74.30
2018-05-11T21:03:44.520Z,75.30
2018-05-11T21:06:12.670Z,76.20
2018-05-11T21:08:40.906Z,76.50
2018-05-11T21:11:09.073Z,76.30
2018-05-11T21:13:37.964Z,77.60
2018-05-11T21:16:06.933Z,78.50
2018-05-11T21:18:35.071Z,77.50
2018-05-11T21:21:03.385Z,77.20
2018-05-11T21:23:32.936Z,77.40
2018-05-11T21:26:01.068Z,77.50
2018-05-11T21:28:29.972Z,77.50
2018-05-11T21:30:58.117Z,77.50
2018-05-11T21:33:26.317Z,76.80
2018-05-11T21:35:54.451Z,76.40
2018-05-11T21:38:22.709Z,75.80
2018-05-11T21:40:50.856Z,76.30
2018-05-11T21:43:19.021Z,75.90
2018-05-11T21:45:47.187Z,76.30
2018-05-11T21:48:15.305Z,76.60
2018-05-11T21:50:43.523Z,77.50
2018-05-11T21:53:11.614Z,76.60
2018-05-11T21:55:39.753Z,76.40
2018-05-11T21:58:08.708Z,77.10
2018-05-11T22:00:36.948Z,77.10
2018-05-11T22:03:05.069Z,76.70
2018-05-11T22:05:33.599Z,77.90
2018-05-11T22:08:01.784Z,77.70
2018-05-11T22:10:29.970Z,77.70
2018-05-11T22:12:58.088Z,76.90
2018-05-11T22:15:26.221Z,77.40
2018-05-11T22:17:54.357Z,77.70
2018-05-11T22:20:22.509Z,77.30
2018-05-11T22:22:52.080Z,77.70
2018-05-11T22:25:20.226Z,77.70
2018-05-11T22:27:48.514Z,77.80
2018-05-11T22:30:16.673Z,77.30
2018-05-11T22:32:44.820Z,77.40
2018-05-11T22:35:13.751Z,77.10
2018-05-11T22:37:41.913Z,77.10
2018-05-11T22:40:10.056Z,77.40
2018-05-11T22:42:39.035Z,77.50
2018-05-11T22:45:07.933Z,77.60
2018-05-11T22:47:36.959Z,77.70
2018-05-11T22:50:05.165Z,77.70
2018-05-11T22:52:33.313Z,77.60
2018-05-11T22:55:01.464Z,78.10
2018-05-11T22:57:29.593Z,78.00
2018-05-11T22:59:57.740Z,78.10
2018-05-11T23:02:25.973Z,78.10
2018-05-11T23:04:54.118Z,78.30
2018-05-11T23:07:23.004Z,79.80
2018-05-11T23:09:51.196Z,79.00
2018-05-11T23:12:20.100Z,79.70
2018-05-11T23:14:48.217Z,79.80
2018-05-11T23:17:16.462Z,80.20
2018-05-11T23:19:44.890Z,80.60
2018-05-11T23:22:13.912Z,80.60
2018-05-11T23:24:42.829Z,80.50
2018-05-11T23:27:10.986Z,80.50
2018-05-11T23:29:39.134Z,81.20
2018-05-11T23:32:08.037Z,82.10
2018-05-11T23:34:36.967Z,82.40
2018-05-11T23:37:05.130Z,82.40
2018-05-11T23:39:33.825Z,82.60
2018-05-11T23:42:01.998Z,83.00
2018-05-11T23:44:30.161Z,83.00
2018-05-11T23:46:58.433Z,83.50
2018-05-11T23:49:26.569Z,83.90
2018-05-11T23:51:54.713Z,84.30
2018-05-11T23:54:23.747Z,84.70
2018-05-11T23:56:51.876Z,84.90
2018-05-11T23:59:20.047Z,85.00
